createdAt,value
2023-05-10T00:02:25.858Z,99728.09
2023-05-10T00:05:27.948Z,99737.91
2023-05-10T00:08:29.919Z,99737.50
2023-05-10T00:11:31.809Z,99729.53
2023-05-10T00:14:33.786Z,99721.50
2023-05-10T00:17:35.799Z,99718.16
2023-05-10T00:20:37.820Z,99727.03
2023-05-10T00:23:39.766Z,99720.59
2023-05-10T00:26:43.284Z,99718.50
2023-05-10T00:29:45.251Z,99717.75
2023-05-10T00:32:49.204Z,99712.13
2023-05-10T00:35:51.238Z,99723.72
2023-05-10T00:38:53.180Z,99712.75
2023-05-10T00:41:55.632Z,99697.16
2023-05-10T00:44:58.563Z,99708.19
2023-05-10T00:48:03.408Z,99703.03
2023-05-10T00:51:05.986Z,99702.22
2023-05-10T00:54:08.406Z,99704.38
2023-05-10T00:57:10.716Z,99695.91
2023-05-10T01:00:14.115Z,99701.56
2023-05-10T01:03:16.268Z,99698.47
2023-05-10T01:06:18.209Z,99693.31
2023-05-10T01:09:22.492Z,99695.41
2023-05-10T01:12:24.797Z,99694.13
2023-05-10T01:15:27.177Z,99692.59
2023-05-10T01:18:31.769Z,99697.16
2023-05-10T01:21:53.868Z,99697.78
2023-05-10T01:25:23.814Z,99691.56
2023-05-10T01:29:02.183Z,99691.44
2023-05-10T01:32:15.507Z,99697.34
2023-05-10T01:35:41.111Z,99689.44
2023-05-10T01:38:54.288Z,99680.28
2023-05-10T01:42:14.158Z,99688.31
2023-05-10T01:45:26.650Z,99686.66
2023-05-10T01:48:31.123Z,99690.03
2023-05-10T01:51:45.781Z,99687.06
2023-05-10T01:54:56.402Z,99678.53
2023-05-10T01:58:09.019Z,99677.63
2023-05-10T02:01:11.467Z,99677.94
2023-05-10T02:04:16.693Z,99679.75
2023-05-10T02:07:20.177Z,99666.91
2023-05-10T02:10:22.100Z,99667.59
2023-05-10T02:13:25.793Z,99667.41
2023-05-10T02:16:31.809Z,99665.25
2023-05-10T02:19:37.624Z,99668.34
2023-05-10T02:22:41.332Z,99671.97
2023-05-10T02:25:45.072Z,99678.41
2023-05-10T02:28:48.225Z,99684.69
2023-05-10T02:31:53.732Z,99678.09
2023-05-10T02:34:56.214Z,99681.81
2023-05-10T02:38:00.225Z,99680.34
2023-05-10T02:41:03.376Z,99684.16
2023-05-10T02:44:09.034Z,99690.41
2023-05-10T02:47:10.978Z,99691.56
2023-05-10T02:50:13.079Z,99678.09
2023-05-10T02:53:23.855Z,99685.72
2023-05-10T02:56:35.618Z,99684.50
2023-05-10T02:59:38.021Z,99692.22
2023-05-10T03:02:39.920Z,99675.44
2023-05-10T03:05:41.909Z,99686.94
2023-05-10T03:08:45.632Z,99679.78
2023-05-10T03:11:56.466Z,99676.06
2023-05-10T03:15:13.403Z,99677.03
2023-05-10T03:18:22.380Z,99678.00
2023-05-10T03:21:29.299Z,99682.78
2023-05-10T03:24:33.307Z,99678.47
2023-05-10T03:27:37.764Z,99674.69
2023-05-10T03:30:41.700Z,99680.53
2023-05-10T03:33:52.913Z,99676.81
2023-05-10T03:37:00.034Z,99676.50
2023-05-10T03:40:06.478Z,99681.06
2023-05-10T03:43:10.774Z,99677.69
2023-05-10T03:46:12.689Z,99681.00
2023-05-10T03:49:14.849Z,99683.59
2023-05-10T03:52:16.990Z,99680.81
2023-05-10T03:55:19.155Z,99672.13
2023-05-10T03:58:21.391Z,99680.13
2023-05-10T04:01:23.597Z,99675.31
2023-05-10T04:04:25.617Z,99679.91
2023-05-10T04:07:27.526Z,99671.88
2023-05-10T04:10:29.490Z,99677.09
2023-05-10T04:13:31.474Z,99681.97
2023-05-10T04:16:33.412Z,99680.78
2023-05-10T04:19:35.321Z,99688.03
2023-05-10T04:22:37.359Z,99682.81
2023-05-10T04:25:39.231Z,99686.09
2023-05-10T04:28:41.269Z,99688.25
2023-05-10T04:31:43.199Z,99692.06
2023-05-10T04:34:45.033Z,99688.28
2023-05-10T04:37:46.928Z,99687.50
2023-05-10T04:40:48.825Z,99682.56
2023-05-10T04:43:50.897Z,99694.94
2023-05-10T04:46:52.863Z,99689.50
2023-05-10T04:49:54.747Z,99693.44
2023-05-10T04:52:56.863Z,99688.47
2023-05-10T04:55:58.873Z,99682.53
2023-05-10T04:59:00.874Z,99680.38
2023-05-10T05:02:03.200Z,99677.81
2023-05-10T05:05:05.594Z,99677.59
2023-05-10T05:08:07.561Z,99675.47
2023-05-10T05:11:09.693Z,99671.16
2023-05-10T05:14:11.565Z,99667.09
2023-05-10T05:17:13.421Z,99663.53
2023-05-10T05:20:15.586Z,99660.78
2023-05-10T05:23:17.895Z,99666.50
2023-05-10T05:26:20.445Z,99668.16
2023-05-10T05:29:22.295Z,99671.44
2023-05-10T05:32:25.219Z,99667.03
2023-05-10T05:35:27.210Z,99668.59
2023-05-10T05:38:29.158Z,99679.41
2023-05-10T05:41:31.003Z,99686.16
2023-05-10T05:44:32.908Z,99683.34
2023-05-10T05:47:34.866Z,99684.72
2023-05-10T05:50:36.943Z,99703.88
2023-05-10T05:53:38.880Z,99697.88
2023-05-10T05:56:40.935Z,99701.09
2023-05-10T05:59:44.893Z,99701.59
2023-05-10T06:02:47.294Z,99708.47
2023-05-10T06:05:49.454Z,99714.59
2023-05-10T06:08:51.316Z,99712.59
2023-05-10T06:11:53.235Z,99712.69
2023-05-10T06:14:55.097Z,99708.75
2023-05-10T06:17:57.075Z,99712.28
2023-05-10T06:20:59.056Z,99711.31
2023-05-10T06:24:01.146Z,99708.34
2023-05-10T06:27:03.163Z,99713.50
2023-05-10T06:30:12.948Z,99719.19
2023-05-10T06:33:17.016Z,99716.47
2023-05-10T06:36:18.923Z,99721.25
2023-05-10T06:39:20.909Z,99724.13
2023-05-10T06:42:22.908Z,99722.00
2023-05-10T06:45:24.716Z,99722.44
2023-05-10T06:48:26.616Z,99729.72
2023-05-10T06:51:28.554Z,99723.72
2023-05-10T06:54:50.786Z,99726.63
2023-05-10T06:57:52.788Z,99726.09
2023-05-10T07:00:54.821Z,99721.38
2023-05-10T07:03:56.710Z,99729.88
2023-05-10T07:06:58.747Z,99726.59
2023-05-10T07:10:00.636Z,99735.13
2023-05-10T07:13:02.841Z,99732.75
2023-05-10T07:16:45.663Z,99731.34
2023-05-10T07:20:47.756Z,99730.09
2023-05-10T07:24:49.636Z,99727.06
2023-05-10T07:28:51.306Z,99728.16
2023-05-10T07:32:52.956Z,99721.38
2023-05-10T07:36:54.691Z,99729.91
2023-05-10T07:40:56.296Z,99732.34
2023-05-10T07:44:57.977Z,99725.63
2023-05-10T07:48:19.820Z,99727.13
2023-05-10T07:51:22.148Z,99731.16
2023-05-10T07:54:24.322Z,99733.88
2023-05-10T07:57:26.202Z,99729.88
2023-05-10T08:00:28.111Z,99727.00
2023-05-10T08:03:30.096Z,99731.94
2023-05-10T08:06:32.024Z,99736.72
2023-05-10T08:09:34.517Z,99736.91
2023-05-10T08:12:36.374Z,99728.38
2023-05-10T08:15:38.516Z,99735.00
2023-05-10T08:18:41.230Z,99734.31
2023-05-10T08:21:43.434Z,99741.00
2023-05-10T08:24:45.330Z,99736.53
2023-05-10T08:27:47.173Z,99742.50
2023-05-10T08:30:51.313Z,99740.25
2023-05-10T08:33:53.756Z,99740.38
2023-05-10T08:36:55.698Z,99739.06
2023-05-10T08:40:20.761Z,99744.13
2023-05-10T08:43:47.190Z,99741.16
2023-05-10T08:47:11.381Z,99734.69
2023-05-10T08:50:34.922Z,99734.56
2023-05-10T08:53:56.923Z,99736.56
2023-05-10T08:57:20.112Z,99736.31
2023-05-10T09:00:42.074Z,99728.38
2023-05-10T09:04:05.337Z,99734.31
2023-05-10T09:07:08.228Z,99733.44
2023-05-10T09:10:11.704Z,99729.06
2023-05-10T09:13:15.059Z,99728.78
2023-05-10T09:16:21.909Z,99727.59
2023-05-10T09:19:24.490Z,99736.13
2023-05-10T09:22:26.482Z,99729.91
2023-05-10T09:25:28.496Z,99733.97
2023-05-10T09:28:33.443Z,99730.00
2023-05-10T09:31:52.073Z,99732.19
2023-05-10T09:34:53.988Z,99727.09
2023-05-10T09:37:58.268Z,99733.06
2023-05-10T09:41:03.650Z,99733.50
2023-05-10T09:44:05.516Z,99722.50
2023-05-10T09:47:07.416Z,99723.34
2023-05-10T09:50:10.562Z,99716.22
2023-05-10T09:53:15.666Z,99719.09
2023-05-10T09:56:36.916Z,99710.09
2023-05-10T09:59:44.073Z,99706.75
2023-05-10T10:03:04.850Z,99708.72
2023-05-10T10:06:15.957Z,99699.31
2023-05-10T10:09:45.261Z,99703.28
2023-05-10T10:13:07.952Z,99693.78
2023-05-10T10:16:30.905Z,99697.47
2023-05-10T10:19:53.229Z,99698.63
2023-05-10T10:23:17.373Z,99697.13
2023-05-10T10:26:20.370Z,99696.69
2023-05-10T10:29:37.428Z,99693.88
2023-05-10T10:33:10.195Z,99694.13
2023-05-10T10:36:16.607Z,99688.22
2023-05-10T10:39:21.068Z,99685.88
2023-05-10T10:43:04.723Z,99677.66
2023-05-10T10:46:26.550Z,99672.97
2023-05-10T10:49:28.514Z,99670.91
2023-05-10T10:52:41.755Z,99667.13
2023-05-10T10:55:49.857Z,99656.34
2023-05-10T10:58:53.519Z,99664.50
2023-05-10T11:01:55.352Z,99649.94
2023-05-10T11:04:57.276Z,99639.91
2023-05-10T11:08:00.945Z,99645.78
2023-05-10T11:11:08.361Z,99644.41
2023-05-10T11:14:10.893Z,99651.78
2023-05-10T11:17:32.709Z,99645.00
2023-05-10T11:20:40.914Z,99634.84
2023-05-10T11:23:48.651Z,99639.13
2023-05-10T11:26:52.184Z,99636.50
2023-05-10T11:29:54.139Z,99634.34
2023-05-10T11:32:56.251Z,99632.56
2023-05-10T11:35:58.341Z,99624.13
2023-05-10T11:39:00.397Z,99631.53
2023-05-10T11:42:02.342Z,99622.31
2023-05-10T11:45:04.580Z,99612.78
2023-05-10T11:48:06.588Z,99616.88
2023-05-10T11:51:12.043Z,99608.41
2023-05-10T11:54:14.044Z,99612.81
2023-05-10T11:57:16.290Z,99609.72
2023-05-10T12:00:18.445Z,99614.91
2023-05-10T12:03:20.968Z,99601.81
2023-05-10T12:06:23.347Z,99583.44
2023-05-10T12:09:48.389Z,99610.50
2023-05-10T12:13:16.444Z,99609.75
2023-05-10T12:16:38.477Z,99613.78
2023-05-10T12:20:15.782Z,99608.38
2023-05-10T12:23:18.104Z,99607.28
2023-05-10T12:30:33.806Z,99593.06
2023-05-10T12:33:39.996Z,99592.94
2023-05-10T12:36:41.900Z,99581.69
2023-05-10T12:39:45.757Z,99587.28
2023-05-10T12:42:47.814Z,99580.84
2023-05-10T12:45:50.023Z,99566.19
2023-05-10T12:49:07.640Z,99565.47
2023-05-10T12:52:11.163Z,99571.28
2023-05-10T12:55:13.041Z,99567.56
2023-05-10T12:58:27.802Z,99558.34
2023-05-10T13:01:36.738Z,99566.72
2023-05-10T13:04:40.775Z,99547.78
2023-05-10T13:07:44.832Z,99556.25
2023-05-10T13:11:07.073Z,99551.28
2023-05-10T13:14:48.807Z,99548.81
2023-05-10T13:18:10.814Z,99545.03
2023-05-10T13:21:12.788Z,99546.28
2023-05-10T13:24:15.221Z,99551.28
2023-05-10T13:27:17.600Z,99539.16
2023-05-10T13:30:19.559Z,99550.38
2023-05-10T13:33:21.602Z,99541.34
2023-05-10T13:36:23.907Z,99545.81
2023-05-10T13:39:25.797Z,99542.03
2023-05-10T13:42:28.137Z,99529.16
2023-05-10T13:45:30.013Z,99531.41
2023-05-10T13:48:31.889Z,99537.06
2023-05-10T13:51:35.283Z,99529.31
2023-05-10T13:54:39.028Z,99532.19
2023-05-10T13:57:40.876Z,99523.16
2023-05-10T14:00:42.757Z,99521.91
2023-05-10T14:03:44.900Z,99520.56
2023-05-10T14:06:46.896Z,99514.09
2023-05-10T14:09:48.719Z,99508.84
2023-05-10T14:12:51.382Z,99508.00
2023-05-10T14:15:54.626Z,99510.59
2023-05-10T14:18:56.831Z,99510.41
2023-05-10T14:21:58.813Z,99510.38
2023-05-10T14:25:01.415Z,99509.50
2023-05-10T14:28:03.454Z,99504.56
2023-05-10T14:31:06.564Z,99511.22
2023-05-10T14:34:08.402Z,99506.44
2023-05-10T14:37:12.394Z,99507.03
2023-05-10T14:40:15.146Z,99501.44
2023-05-10T14:43:16.980Z,99505.19
2023-05-10T14:46:19.233Z,99497.94
2023-05-10T14:49:23.690Z,99490.47
2023-05-10T14:52:25.596Z,99501.22
2023-05-10T14:55:27.483Z,99492.94
2023-05-10T14:58:29.488Z,99490.03
2023-05-10T15:01:32.685Z,99475.78
2023-05-10T15:04:34.828Z,99478.91
2023-05-10T15:07:37.170Z,99474.31
2023-05-10T15:10:39.985Z,99483.16
2023-05-10T15:13:41.851Z,99474.94
2023-05-10T15:16:43.804Z,99471.66
2023-05-10T15:19:45.658Z,99474.09
2023-05-10T15:22:47.496Z,99470.38
2023-05-10T15:25:50.834Z,99464.53
2023-05-10T15:28:53.578Z,99470.72
2023-05-10T15:31:55.685Z,99463.69
2023-05-10T15:34:58.047Z,99469.50
2023-05-10T15:37:59.992Z,99463.81
2023-05-10T15:41:02.055Z,99466.75
2023-05-10T15:44:04.183Z,99466.13
2023-05-10T15:47:06.981Z,99459.84
2023-05-10T15:50:09.760Z,99458.13
2023-05-10T15:53:11.699Z,99459.03
2023-05-10T15:56:13.916Z,99453.13
2023-05-10T15:59:15.741Z,99455.16
2023-05-10T16:02:19.357Z,99451.44
2023-05-10T16:05:21.656Z,99452.19
2023-05-10T16:08:23.752Z,99454.19
2023-05-10T16:11:25.992Z,99446.03
2023-05-10T16:14:27.872Z,99455.28
2023-05-10T16:17:29.792Z,99451.88
2023-05-10T16:20:33.056Z,99453.88
2023-05-10T16:23:34.911Z,99454.78
2023-05-10T16:26:41.008Z,99448.34
2023-05-10T16:29:43.019Z,99448.88
2023-05-10T16:32:45.199Z,99454.88
2023-05-10T16:35:47.146Z,99456.03
2023-05-10T16:38:48.941Z,99445.38
2023-05-10T16:41:50.826Z,99451.63
2023-05-10T16:44:53.678Z,99452.03
2023-05-10T16:47:57.920Z,99454.09
2023-05-10T16:50:59.932Z,99454.44
2023-05-10T16:54:02.020Z,99451.91
2023-05-10T16:57:04.000Z,99457.28
2023-05-10T17:00:06.477Z,99455.66
2023-05-10T17:03:08.507Z,99454.19
2023-05-10T17:06:12.031Z,99461.59
2023-05-10T17:09:14.007Z,99473.41
2023-05-10T17:12:16.069Z,99464.09
2023-05-10T17:15:19.278Z,99470.38
2023-05-10T17:18:21.623Z,99472.88
2023-05-10T17:21:23.563Z,99469.28
2023-05-10T17:24:27.036Z,99472.81
2023-05-10T17:27:30.196Z,99458.25
2023-05-10T17:30:32.844Z,99472.94
2023-05-10T17:33:34.774Z,99481.28
2023-05-10T17:36:36.630Z,99488.06
2023-05-10T17:39:40.014Z,99474.44
2023-05-10T17:42:42.043Z,99477.72
2023-05-10T17:45:46.687Z,99483.38
2023-05-10T17:48:48.673Z,99478.81
2023-05-10T17:51:50.777Z,99479.81
2023-05-10T17:54:53.362Z,99483.31
2023-05-10T17:57:58.599Z,99483.56
2023-05-10T18:01:00.801Z,99494.88
2023-05-10T18:04:02.802Z,99487.00
2023-05-10T18:07:04.718Z,99495.66
2023-05-10T18:10:07.193Z,99496.81
2023-05-10T18:13:09.380Z,99493.34
2023-05-10T18:16:13.514Z,99484.63
2023-05-10T18:19:15.458Z,99503.69
2023-05-10T18:22:17.674Z,99497.56
2023-05-10T18:25:19.616Z,99504.56
2023-05-10T18:28:21.594Z,99505.16
2023-05-10T18:31:24.007Z,99507.69
2023-05-10T18:34:26.004Z,99517.34
2023-05-10T18:37:28.042Z,99511.31
2023-05-10T18:40:29.988Z,99518.72
2023-05-10T18:43:34.164Z,99519.91
2023-05-10T18:46:36.678Z,99521.94
2023-05-10T18:49:38.946Z,99526.28
2023-05-10T18:52:40.963Z,99517.78
2023-05-10T18:55:44.208Z,99524.53
2023-05-10T18:58:46.684Z,99527.22
2023-05-10T19:01:50.862Z,99531.84
2023-05-10T19:04:53.306Z,99530.66
2023-05-10T19:07:56.477Z,99530.53
2023-05-10T19:10:58.453Z,99538.63
2023-05-10T19:14:01.549Z,99533.78
2023-05-10T19:17:03.583Z,99539.78
2023-05-10T19:20:10.584Z,99531.97
2023-05-10T19:23:12.705Z,99531.75
2023-05-10T19:26:21.726Z,99535.28
2023-05-10T19:29:25.791Z,99541.88
2023-05-10T19:32:28.708Z,99539.31
2023-05-10T19:35:30.746Z,99535.06
2023-05-10T19:38:33.879Z,99531.50
2023-05-10T19:41:35.715Z,99537.31
2023-05-10T19:44:37.763Z,99532.34
2023-05-10T19:47:40.035Z,99538.69
2023-05-10T19:50:41.917Z,99537.41
2023-05-10T19:53:44.978Z,99535.53
2023-05-10T19:56:47.099Z,99539.53
2023-05-10T19:59:49.137Z,99535.28
2023-05-10T20:02:51.412Z,99537.41
2023-05-10T20:05:53.260Z,99540.53
2023-05-10T20:08:55.125Z,99536.03
2023-05-10T20:11:57.014Z,99536.13
2023-05-10T20:14:59.352Z,99545.19
2023-05-10T20:18:01.459Z,99545.41
2023-05-10T20:21:03.610Z,99535.50
2023-05-10T20:24:06.539Z,99538.31
2023-05-10T20:27:08.394Z,99537.66
2023-05-10T20:30:10.590Z,99537.63
2023-05-10T20:33:15.585Z,99539.78
2023-05-10T20:36:17.618Z,99536.81
2023-05-10T20:39:19.475Z,99545.94
2023-05-10T20:42:22.413Z,99539.13
2023-05-10T20:45:24.255Z,99543.91
2023-05-10T20:48:26.350Z,99542.41
2023-05-10T20:51:30.430Z,99540.44
2023-05-10T20:54:32.257Z,99534.47
2023-05-10T20:57:34.123Z,99535.69
2023-05-10T21:00:35.971Z,99535.94
2023-05-10T21:03:37.803Z,99536.25
2023-05-10T21:06:39.710Z,99538.31
2023-05-10T21:09:41.596Z,99538.31
2023-05-10T21:12:43.449Z,99531.81
2023-05-10T21:15:45.653Z,99516.22
2023-05-10T21:18:47.612Z,99537.00
2023-05-10T21:21:49.447Z,99530.47
2023-05-10T21:24:51.606Z,99528.63
2023-05-10T21:27:53.515Z,99531.31
2023-05-10T21:31:05.438Z,99531.72
2023-05-10T21:34:07.253Z,99530.19
2023-05-10T21:37:09.099Z,99529.97
2023-05-10T21:40:11.824Z,99522.84
2023-05-10T21:43:13.838Z,99529.47
2023-05-10T21:46:15.862Z,99529.88
2023-05-10T21:49:17.931Z,99535.66
2023-05-10T21:52:19.832Z,99537.19
2023-05-10T21:55:22.003Z,99539.06
2023-05-10T21:58:24.105Z,99536.06
2023-05-10T22:01:26.237Z,99537.91
2023-05-10T22:04:28.094Z,99531.41
2023-05-10T22:07:31.649Z,99534.53
2023-05-10T22:10:33.882Z,99532.16
2023-05-10T22:13:35.924Z,99544.78
2023-05-10T22:16:37.826Z,99535.88
2023-05-10T22:19:39.759Z,99540.13
2023-05-10T22:22:41.580Z,99534.13
2023-05-10T22:25:43.413Z,99544.97
2023-05-10T22:28:45.501Z,99536.50
2023-05-10T22:31:47.316Z,99544.78
2023-05-10T22:34:49.182Z,99531.88
2023-05-10T22:37:51.476Z,99544.25
2023-05-10T22:40:53.298Z,99539.09
2023-05-10T22:43:55.490Z,99543.47
2023-05-10T22:46:57.435Z,99536.72
2023-05-10T22:49:59.631Z,99539.50
2023-05-10T22:53:01.497Z,99531.66
2023-05-10T22:56:03.514Z,99531.88
2023-05-10T22:59:05.467Z,99536.00
2023-05-10T23:02:07.464Z,99533.31
2023-05-10T23:05:09.967Z,99533.44
2023-05-10T23:08:12.113Z,99527.53
2023-05-10T23:11:14.119Z,99534.66
2023-05-10T23:14:16.073Z,99528.75
2023-05-10T23:17:17.999Z,99527.19
2023-05-10T23:20:20.147Z,99535.38
2023-05-10T23:23:22.789Z,99527.13
2023-05-10T23:26:24.744Z,99527.31
2023-05-10T23:29:26.786Z,99528.44
2023-05-10T23:32:28.739Z,99529.41
2023-05-10T23:35:31.522Z,99526.38
2023-05-10T23:38:33.427Z,99530.72
2023-05-10T23:41:35.288Z,99530.00
2023-05-10T23:44:37.112Z,99527.31
2023-05-10T23:47:39.023Z,99529.59
2023-05-10T23:50:44.625Z,99528.97
2023-05-10T23:53:46.503Z,99531.25
2023-05-10T23:56:50.254Z,99533.44
2023-05-10T23:59:52.305Z,99530.13
